LPPTGMMX

Guest
Details From LPPT - Lisboa
To GMMX - MENARA
Flight Number -
Tags decoded
Created
Modified
Stats Distance 441 nm / 817 km
Max Altitude 0 ft / 0 m
Waypoints 4
Social Downloads 0
Likes 0
Share VATSIM

Download

Looking for another format? Having issues loading an existing format? Contact us
Advertisement - Login to hide

Notes

Requested: LPPT TROIA AMSEL MABAP GMMX Unmatched points: MABAP

Route

LPPT TROIA AMSEL GMMX

ID Type Via Altitude Latitude Longitude Leg Dist Tot Dist Heading (true) Name
O LPPT APT - 0 ft / 0 m 38.77856˚ -9.13515˚ - 0 nm - Lisboa
TROIA FIX - 0 ft / 0 m 38.07333˚ -8.87917˚ 44 nm 44 nm 164° / 164° -
AMSEL FIX - 0 ft / 0 m 35.96667˚ -7.88333˚ 135 nm 179 nm 159° / 160° -
O GMMX APT - 0 ft / 0 m 31.60692˚ -8.03627˚ 261 nm 441 nm 182° / 182° MENARA

Altitude Profile

Advertisement - Login to hide

Weather


0- 5 10 15 20 25 30 35+ Temperature / ° C

Clouds and Precipitation
Forecast for 2018-01-21 18:00 UTC. Updated an hour ago

Ground ~20,000 ft ~40,000 ft Winds

LPPT

Details ICAO LPPT (LIS)
Name Lisboa
Region Portugal
Timezone Europe/Lisbon (UTC+0.0)
Stats Elevation 374 ft / 114 m (AMSL)
Location 38.778559° -9.135146°
Runways 2
Magnetic Variation 2.351° W

METAR

LPPT 211600Z 34010KT 9999 FEW018 BKN020 14/11 Q1032

Decode

TAF

TAF LPPT 211100Z 2112/2218 35010KT 9999 BKN018 BECMG 2116/2118 FEW018 BECMG 2121/2124 BKN008 TEMPO 2200/2209 5000 BR BKN003 BECMG 2210/2211 BKN020

Decode

Departure Runways

ID Width Length Bearing (true) Bearing (mag) Surface Threshold Offset Overrun Length
03 148 ft / 45 m 12,518 ft / 3,815 m 22.70° 25.05° Asphalt 296 ft / 90 m 0 ft / 0 m
17 148 ft / 45 m 7,922 ft / 2,415 m 168.38° 170.73° Asphalt 0 ft / 0 m 0 ft / 0 m
21 148 ft / 45 m 12,518 ft / 3,815 m 202.72° 205.07° Asphalt 1,969 ft / 600 m 0 ft / 0 m
35 148 ft / 45 m 7,922 ft / 2,415 m 348.38° 350.73° Asphalt 492 ft / 150 m 0 ft / 0 m

GMMX

Details ICAO GMMX (RAK)
Name MENARA
Region Morocco
Timezone Africa/Casablanca (UTC+0.0)
Stats Elevation 1,545 ft / 471 m (AMSL)
Location 31.606920° -8.036265°
Runways 1
Magnetic Variation 1.988° W

METAR

GMMX 211600Z 04010KT CAVOK 23/M06 Q1027 NOSIG

Decode

TAF

TAF TAF GMMX 211100Z 2112/2218 06006KT CAVOK

Decode

Destination Runways

ID Width Length Bearing (true) Bearing (mag) Surface Threshold Offset Overrun Length
10 148 ft / 45 m 10,169 ft / 3,100 m 95.99° 97.98° Asphalt 918 ft / 280 m 0 ft / 0 m
28 148 ft / 45 m 10,169 ft / 3,100 m 276.00° 277.99° Asphalt 0 ft / 0 m 0 ft / 0 m

Approach Navaids

Runway Type Ident Frequency Range Bearing (true) Bearing (mag) Slope Elevation
10 Localiser MAR 109.70 MHz 18 nm / 33 km 96.03° 98.01° - 1,545 ft / 471 m (AMSL)
10 Glidescope MAR 109.70 MHz 10 nm / 19 km 96.00° 97.98° 3.00° 1,558 ft / 475 m (AMSL)

Popular Alternatives